Rumely, Michigan
Current Conditions -  °F | °C
As of 6:46 PM on Friday 19 Dec 2014 (Local Time) from KSAW Reporting Station
Overcast Overcast  
Wind Chill: 27°   Ceiling: 1800
Heat Index: 27°   Visibility: 10mi
Dew Point: 19°   Wind: 0mph
Humidity: 74%   Direction: NA
Pressure: 30.24"   Gusts: NA
Location:  46.35°N, 87.03°W
Report Text: KSAW 192346Z 00000KT 10SM OVC018 M03/M07 A3024
Loading
Personal Weather Stations






























Interactive Weather Map New forecast layout! Learn more

10-Day Weather Forecast

Advertisements
Track Severe Weather on mobile